sensor_id;sensor_type;location;lat;lon;timestamp;temperature;humidity
31979;DHT22;18502;43.574;1.276;2024-01-30T00:01:11;11.60;99.90
31979;DHT22;18502;43.574;1.276;2024-01-30T00:03:37;11.60;99.90
31979;DHT22;18502;43.574;1.276;2024-01-30T00:06:03;11.50;99.90
31979;DHT22;18502;43.574;1.276;2024-01-30T00:08:29;11.50;99.90
31979;DHT22;18502;43.574;1.276;2024-01-30T00:10:55;11.40;99.90
31979;DHT22;18502;43.574;1.276;2024-01-30T00:13:20;11.40;99.90
31979;DHT22;18502;43.574;1.276;2024-01-30T00:15:46;11.40;99.90
31979;DHT22;18502;43.574;1.276;2024-01-30T00:18:12;11.40;99.90
31979;DHT22;18502;43.574;1.276;2024-01-30T00:20:37;11.20;99.90
31979;DHT22;18502;43.574;1.276;2024-01-30T00:23:03;11.10;99.90
31979;DHT22;18502;43.574;1.276;2024-01-30T00:25:29;11.10;99.90
31979;DHT22;18502;43.574;1.276;2024-01-30T00:27:54;11.10;99.90
31979;DHT22;18502;43.574;1.276;2024-01-30T00:30:20;11.10;99.90
31979;DHT22;18502;43.574;1.276;2024-01-30T00:32:46;11.10;99.90
31979;DHT22;18502;43.574;1.276;2024-01-30T00:35:12;11.10;99.90
31979;DHT22;18502;43.574;1.276;2024-01-30T00:37:37;11.20;99.90
31979;DHT22;18502;43.574;1.276;2024-01-30T00:40:03;11.10;99.90
31979;DHT22;18502;43.574;1.276;2024-01-30T00:42:31;11.00;99.90
31979;DHT22;18502;43.574;1.276;2024-01-30T00:44:57;10.90;99.90
31979;DHT22;18502;43.574;1.276;2024-01-30T00:47:23;10.90;99.90
31979;DHT22;18502;43.574;1.276;2024-01-30T00:49:49;11.00;99.90
31979;DHT22;18502;43.574;1.276;2024-01-30T00:52:15;11.00;99.90
31979;DHT22;18502;43.574;1.276;2024-01-30T00:54:41;11.10;99.90
31979;DHT22;18502;43.574;1.276;2024-01-30T00:57:07;11.20;99.90
31979;DHT22;18502;43.574;1.276;2024-01-30T00:59:32;11.20;99.90
31979;DHT22;18502;43.574;1.276;2024-01-30T01:01:58;11.10;99.90
31979;DHT22;18502;43.574;1.276;2024-01-30T01:04:24;11.20;99.90
31979;DHT22;18502;43.574;1.276;2024-01-30T01:06:52;11.10;99.90
31979;DHT22;18502;43.574;1.276;2024-01-30T01:09:17;11.10;99.90
31979;DHT22;18502;43.574;1.276;2024-01-30T01:11:43;11.10;99.90
31979;DHT22;18502;43.574;1.276;2024-01-30T01:14:09;11.10;99.90
31979;DHT22;18502;43.574;1.276;2024-01-30T01:16:34;11.10;99.90
31979;DHT22;18502;43.574;1.276;2024-01-30T01:19:00;11.10;99.90
31979;DHT22;18502;43.574;1.276;2024-01-30T01:21:26;11.10;99.90
31979;DHT22;18502;43.574;1.276;2024-01-30T01:23:52;11.00;99.90
31979;DHT22;18502;43.574;1.276;2024-01-30T01:26:18;11.10;99.90
31979;DHT22;18502;43.574;1.276;2024-01-30T01:28:43;11.20;99.90
31979;DHT22;18502;43.574;1.276;2024-01-30T01:31:09;11.20;99.90
31979;DHT22;18502;43.574;1.276;2024-01-30T01:33:35;11.30;99.90
31979;DHT22;18502;43.574;1.276;2024-01-30T01:36:02;11.30;99.90
31979;DHT22;18502;43.574;1.276;2024-01-30T01:38:28;11.30;99.90
31979;DHT22;18502;43.574;1.276;2024-01-30T01:40:54;11.40;99.90
31979;DHT22;18502;43.574;1.276;2024-01-30T01:43:20;11.40;99.90
31979;DHT22;18502;43.574;1.276;2024-01-30T01:45:45;11.40;99.90
31979;DHT22;18502;43.574;1.276;2024-01-30T01:48:11;11.40;99.90
31979;DHT22;18502;43.574;1.276;2024-01-30T01:50:38;11.50;99.90
31979;DHT22;18502;43.574;1.276;2024-01-30T01:53:07;11.50;99.90
31979;DHT22;18502;43.574;1.276;2024-01-30T01:55:34;11.50;99.90
31979;DHT22;18502;43.574;1.276;2024-01-30T01:58:00;11.50;99.90
31979;DHT22;18502;43.574;1.276;2024-01-30T02:00:26;11.50;99.90
31979;DHT22;18502;43.574;1.276;2024-01-30T02:02:53;11.50;99.90
31979;DHT22;18502;43.574;1.276;2024-01-30T02:05:20;11.50;99.90
31979;DHT22;18502;43.574;1.276;2024-01-30T02:07:46;11.40;99.90
31979;DHT22;18502;43.574;1.276;2024-01-30T02:10:12;11.40;99.90
31979;DHT22;18502;43.574;1.276;2024-01-30T02:12:38;11.30;99.90
31979;DHT22;18502;43.574;1.276;2024-01-30T02:15:05;11.40;99.90
31979;DHT22;18502;43.574;1.276;2024-01-30T02:17:31;11.50;99.90
31979;DHT22;18502;43.574;1.276;2024-01-30T02:19:57;11.50;99.90
31979;DHT22;18502;43.574;1.276;2024-01-30T02:22:22;11.40;99.90
31979;DHT22;18502;43.574;1.276;2024-01-30T02:24:49;11.40;99.90
31979;DHT22;18502;43.574;1.276;2024-01-30T02:27:15;11.50;99.90
31979;DHT22;18502;43.574;1.276;2024-01-30T02:29:41;11.50;99.90
31979;DHT22;18502;43.574;1.276;2024-01-30T02:32:07;11.50;99.90
31979;DHT22;18502;43.574;1.276;2024-01-30T02:34:33;11.50;99.90
31979;DHT22;18502;43.574;1.276;2024-01-30T02:36:59;11.50;99.90
31979;DHT22;18502;43.574;1.276;2024-01-30T02:39:25;11.50;99.90
31979;DHT22;18502;43.574;1.276;2024-01-30T02:41:50;11.50;99.90
31979;DHT22;18502;43.574;1.276;2024-01-30T02:44:16;11.50;99.90
31979;DHT22;18502;43.574;1.276;2024-01-30T02:46:42;11.50;99.90
31979;DHT22;18502;43.574;1.276;2024-01-30T02:49:07;11.50;99.90
31979;DHT22;18502;43.574;1.276;2024-01-30T02:51:33;11.50;99.90
31979;DHT22;18502;43.574;1.276;2024-01-30T02:53:59;11.40;99.90
31979;DHT22;18502;43.574;1.276;2024-01-30T02:56:24;11.40;99.90
31979;DHT22;18502;43.574;1.276;2024-01-30T02:58:50;11.50;99.90
31979;DHT22;18502;43.574;1.276;2024-01-30T03:01:16;11.50;99.90
31979;DHT22;18502;43.574;1.276;2024-01-30T03:03:41;11.50;99.90
31979;DHT22;18502;43.574;1.276;2024-01-30T03:06:08;11.50;99.90
31979;DHT22;18502;43.574;1.276;2024-01-30T03:08:34;11.50;99.90
31979;DHT22;18502;43.574;1.276;2024-01-30T03:11:00;11.40;99.90
31979;DHT22;18502;43.574;1.276;2024-01-30T03:13:26;11.50;99.90
31979;DHT22;18502;43.574;1.276;2024-01-30T03:15:52;11.50;99.90
31979;DHT22;18502;43.574;1.276;2024-01-30T03:18:18;11.50;99.90
31979;DHT22;18502;43.574;1.276;2024-01-30T03:20:44;11.40;99.90
31979;DHT22;18502;43.574;1.276;2024-01-30T03:23:10;11.50;99.90
31979;DHT22;18502;43.574;1.276;2024-01-30T03:25:35;11.50;99.90
31979;DHT22;18502;43.574;1.276;2024-01-30T03:28:01;11.50;99.90
31979;DHT22;18502;43.574;1.276;2024-01-30T03:30:26;11.50;99.90
31979;DHT22;18502;43.574;1.276;2024-01-30T03:32:52;11.50;99.90
31979;DHT22;18502;43.574;1.276;2024-01-30T03:35:19;11.50;99.90
31979;DHT22;18502;43.574;1.276;2024-01-30T03:37:44;11.50;99.90
31979;DHT22;18502;43.574;1.276;2024-01-30T03:40:10;11.50;99.90
31979;DHT22;18502;43.574;1.276;2024-01-30T03:42:36;11.50;99.90
31979;DHT22;18502;43.574;1.276;2024-01-30T03:45:02;11.50;99.90
31979;DHT22;18502;43.574;1.276;2024-01-30T03:47:28;11.60;99.90
31979;DHT22;18502;43.574;1.276;2024-01-30T03:49:53;11.60;99.90
31979;DHT22;18502;43.574;1.276;2024-01-30T03:52:19;11.60;99.90
31979;DHT22;18502;43.574;1.276;2024-01-30T03:54:44;11.60;99.90
31979;DHT22;18502;43.574;1.276;2024-01-30T03:57:10;11.60;99.90
31979;DHT22;18502;43.574;1.276;2024-01-30T03:59:36;11.50;99.90
31979;DHT22;18502;43.574;1.276;2024-01-30T04:02:02;11.50;99.90
31979;DHT22;18502;43.574;1.276;2024-01-30T04:04:28;11.50;99.90
31979;DHT22;18502;43.574;1.276;2024-01-30T04:06:53;11.50;99.90
31979;DHT22;18502;43.574;1.276;2024-01-30T04:09:19;11.60;99.90
31979;DHT22;18502;43.574;1.276;2024-01-30T04:11:45;11.50;99.90
31979;DHT22;18502;43.574;1.276;2024-01-30T04:14:10;11.50;99.90
31979;DHT22;18502;43.574;1.276;2024-01-30T04:16:36;11.60;99.90
31979;DHT22;18502;43.574;1.276;2024-01-30T04:19:02;11.50;99.90
31979;DHT22;18502;43.574;1.276;2024-01-30T04:21:27;11.60;99.90
31979;DHT22;18502;43.574;1.276;2024-01-30T04:23:53;11.60;99.90
31979;DHT22;18502;43.574;1.276;2024-01-30T04:26:19;11.60;99.90
31979;DHT22;18502;43.574;1.276;2024-01-30T04:28:45;11.60;99.90
31979;DHT22;18502;43.574;1.276;2024-01-30T04:31:11;11.60;99.90
31979;DHT22;18502;43.574;1.276;2024-01-30T04:33:37;11.60;99.90
31979;DHT22;18502;43.574;1.276;2024-01-30T04:36:03;11.60;99.90
31979;DHT22;18502;43.574;1.276;2024-01-30T04:38:29;11.60;99.90
31979;DHT22;18502;43.574;1.276;2024-01-30T04:40:54;11.60;99.90
31979;DHT22;18502;43.574;1.276;2024-01-30T04:43:20;11.60;99.90
31979;DHT22;18502;43.574;1.276;2024-01-30T04:45:47;11.50;99.90
31979;DHT22;18502;43.574;1.276;2024-01-30T04:48:13;11.60;99.90
31979;DHT22;18502;43.574;1.276;2024-01-30T04:50:39;11.60;99.90
31979;DHT22;18502;43.574;1.276;2024-01-30T04:53:04;11.60;99.90
31979;DHT22;18502;43.574;1.276;2024-01-30T04:55:30;11.60;99.90
31979;DHT22;18502;43.574;1.276;2024-01-30T04:57:56;11.50;99.90
31979;DHT22;18502;43.574;1.276;2024-01-30T05:00:21;11.50;99.90
31979;DHT22;18502;43.574;1.276;2024-01-30T05:02:47;11.50;99.90
31979;DHT22;18502;43.574;1.276;2024-01-30T05:05:12;11.50;99.90
31979;DHT22;18502;43.574;1.276;2024-01-30T05:07:40;11.50;99.90
31979;DHT22;18502;43.574;1.276;2024-01-30T05:10:06;11.50;99.90
31979;DHT22;18502;43.574;1.276;2024-01-30T05:12:32;11.50;99.90
31979;DHT22;18502;43.574;1.276;2024-01-30T05:14:57;11.50;99.90
31979;DHT22;18502;43.574;1.276;2024-01-30T05:17:23;11.50;99.90
31979;DHT22;18502;43.574;1.276;2024-01-30T05:19:49;11.40;99.90
31979;DHT22;18502;43.574;1.276;2024-01-30T05:22:14;11.40;99.90
31979;DHT22;18502;43.574;1.276;2024-01-30T05:24:41;11.40;99.90
31979;DHT22;18502;43.574;1.276;2024-01-30T05:27:08;11.30;99.90
31979;DHT22;18502;43.574;1.276;2024-01-30T05:29:33;11.30;99.90
31979;DHT22;18502;43.574;1.276;2024-01-30T05:31:59;11.40;99.90
31979;DHT22;18502;43.574;1.276;2024-01-30T05:34:25;11.30;99.90
31979;DHT22;18502;43.574;1.276;2024-01-30T05:36:50;11.40;99.90
31979;DHT22;18502;43.574;1.276;2024-01-30T05:39:16;11.30;99.90
31979;DHT22;18502;43.574;1.276;2024-01-30T05:41:42;11.40;99.90
31979;DHT22;18502;43.574;1.276;2024-01-30T05:44:07;11.40;99.90
31979;DHT22;18502;43.574;1.276;2024-01-30T05:46:35;11.30;99.90
31979;DHT22;18502;43.574;1.276;2024-01-30T05:49:00;11.40;99.90
31979;DHT22;18502;43.574;1.276;2024-01-30T05:51:26;11.40;99.90
31979;DHT22;18502;43.574;1.276;2024-01-30T05:53:53;11.40;99.90
31979;DHT22;18502;43.574;1.276;2024-01-30T05:56:19;11.40;99.90
31979;DHT22;18502;43.574;1.276;2024-01-30T05:58:44;11.40;99.90
31979;DHT22;18502;43.574;1.276;2024-01-30T06:01:10;11.40;99.90
31979;DHT22;18502;43.574;1.276;2024-01-30T06:03:36;11.40;99.90
31979;DHT22;18502;43.574;1.276;2024-01-30T06:06:01;11.40;99.90
31979;DHT22;18502;43.574;1.276;2024-01-30T06:08:27;11.40;99.90
31979;DHT22;18502;43.574;1.276;2024-01-30T06:10:53;11.40;99.90
31979;DHT22;18502;43.574;1.276;2024-01-30T06:13:19;11.40;99.90
31979;DHT22;18502;43.574;1.276;2024-01-30T06:15:45;11.40;99.90
31979;DHT22;18502;43.574;1.276;2024-01-30T06:18:10;11.40;99.90
31979;DHT22;18502;43.574;1.276;2024-01-30T06:20:36;11.40;99.90
31979;DHT22;18502;43.574;1.276;2024-01-30T06:23:01;11.50;99.90
31979;DHT22;18502;43.574;1.276;2024-01-30T06:25:27;11.50;99.90
31979;DHT22;18502;43.574;1.276;2024-01-30T06:27:53;11.50;99.90
31979;DHT22;18502;43.574;1.276;2024-01-30T06:30:18;11.50;99.90
31979;DHT22;18502;43.574;1.276;2024-01-30T06:32:44;11.50;99.90
31979;DHT22;18502;43.574;1.276;2024-01-30T06:35:10;11.60;99.90
31979;DHT22;18502;43.574;1.276;2024-01-30T06:37:36;11.50;99.90
31979;DHT22;18502;43.574;1.276;2024-01-30T06:40:02;11.50;99.90
31979;DHT22;18502;43.574;1.276;2024-01-30T06:42:30;11.40;99.90
31979;DHT22;18502;43.574;1.276;2024-01-30T06:44:55;11.40;99.90
31979;DHT22;18502;43.574;1.276;2024-01-30T06:47:21;11.50;99.90
31979;DHT22;18502;43.574;1.276;2024-01-30T06:49:47;11.50;99.90
31979;DHT22;18502;43.574;1.276;2024-01-30T06:52:12;11.50;99.90
31979;DHT22;18502;43.574;1.276;2024-01-30T06:54:38;11.30;99.90
31979;DHT22;18502;43.574;1.276;2024-01-30T06:57:05;11.30;99.90
31979;DHT22;18502;43.574;1.276;2024-01-30T06:59:34;11.30;99.90
31979;DHT22;18502;43.574;1.276;2024-01-30T07:02:00;11.30;99.90
31979;DHT22;18502;43.574;1.276;2024-01-30T07:04:25;11.30;99.90
31979;DHT22;18502;43.574;1.276;2024-01-30T07:06:51;11.30;99.90
31979;DHT22;18502;43.574;1.276;2024-01-30T07:09:18;11.30;99.90
31979;DHT22;18502;43.574;1.276;2024-01-30T07:11:44;11.30;99.90
31979;DHT22;18502;43.574;1.276;2024-01-30T07:14:10;11.30;99.90
31979;DHT22;18502;43.574;1.276;2024-01-30T07:16:36;11.30;99.90
31979;DHT22;18502;43.574;1.276;2024-01-30T07:19:01;11.30;99.90
31979;DHT22;18502;43.574;1.276;2024-01-30T07:21:27;11.30;99.90
31979;DHT22;18502;43.574;1.276;2024-01-30T07:23:56;11.30;99.90
31979;DHT22;18502;43.574;1.276;2024-01-30T07:26:22;11.30;99.90
31979;DHT22;18502;43.574;1.276;2024-01-30T07:28:47;11.30;99.90
31979;DHT22;18502;43.574;1.276;2024-01-30T07:31:13;11.30;99.90
31979;DHT22;18502;43.574;1.276;2024-01-30T07:33:39;11.30;99.90
31979;DHT22;18502;43.574;1.276;2024-01-30T07:36:05;11.30;99.90
31979;DHT22;18502;43.574;1.276;2024-01-30T07:38:33;11.30;99.90
31979;DHT22;18502;43.574;1.276;2024-01-30T07:40:59;11.30;99.90
31979;DHT22;18502;43.574;1.276;2024-01-30T07:43:25;11.30;99.90
31979;DHT22;18502;43.574;1.276;2024-01-30T07:45:51;11.40;99.90
31979;DHT22;18502;43.574;1.276;2024-01-30T07:48:16;11.40;99.90
31979;DHT22;18502;43.574;1.276;2024-01-30T07:50:42;11.40;99.90
31979;DHT22;18502;43.574;1.276;2024-01-30T07:53:08;11.50;99.90
31979;DHT22;18502;43.574;1.276;2024-01-30T07:55:34;11.50;99.90
31979;DHT22;18502;43.574;1.276;2024-01-30T07:57:59;11.50;99.90
31979;DHT22;18502;43.574;1.276;2024-01-30T08:00:25;11.60;99.90
31979;DHT22;18502;43.574;1.276;2024-01-30T08:02:52;11.60;99.90
31979;DHT22;18502;43.574;1.276;2024-01-30T08:05:21;11.60;99.90
31979;DHT22;18502;43.574;1.276;2024-01-30T08:07:51;11.70;99.90
31979;DHT22;18502;43.574;1.276;2024-01-30T08:10:17;11.70;99.90
31979;DHT22;18502;43.574;1.276;2024-01-30T08:12:45;11.80;99.90
31979;DHT22;18502;43.574;1.276;2024-01-30T08:15:12;11.80;99.90
31979;DHT22;18502;43.574;1.276;2024-01-30T08:17:40;11.80;99.90
31979;DHT22;18502;43.574;1.276;2024-01-30T08:20:06;11.90;99.90
31979;DHT22;18502;43.574;1.276;2024-01-30T08:22:33;11.90;99.90
31979;DHT22;18502;43.574;1.276;2024-01-30T08:24:59;12.00;99.90
31979;DHT22;18502;43.574;1.276;2024-01-30T08:27:25;12.10;99.90
31979;DHT22;18502;43.574;1.276;2024-01-30T08:29:51;12.10;99.90
31979;DHT22;18502;43.574;1.276;2024-01-30T08:32:16;12.10;99.90
31979;DHT22;18502;43.574;1.276;2024-01-30T08:34:42;12.10;99.90
31979;DHT22;18502;43.574;1.276;2024-01-30T08:37:08;12.10;99.90
31979;DHT22;18502;43.574;1.276;2024-01-30T08:39:33;12.20;99.90
31979;DHT22;18502;43.574;1.276;2024-01-30T08:41:59;12.20;99.90
31979;DHT22;18502;43.574;1.276;2024-01-30T08:44:25;12.30;99.90
31979;DHT22;18502;43.574;1.276;2024-01-30T08:46:50;12.50;99.90
31979;DHT22;18502;43.574;1.276;2024-01-30T08:49:16;12.60;99.90
31979;DHT22;18502;43.574;1.276;2024-01-30T08:51:42;13.00;99.90
31979;DHT22;18502;43.574;1.276;2024-01-30T08:54:08;13.30;99.90
31979;DHT22;18502;43.574;1.276;2024-01-30T08:56:33;13.50;99.90
31979;DHT22;18502;43.574;1.276;2024-01-30T08:58:59;13.40;99.90
31979;DHT22;18502;43.574;1.276;2024-01-30T09:01:27;13.00;99.90
31979;DHT22;18502;43.574;1.276;2024-01-30T09:03:53;12.70;99.90
31979;DHT22;18502;43.574;1.276;2024-01-30T09:06:19;13.00;99.90
31979;DHT22;18502;43.574;1.276;2024-01-30T09:08:44;13.10;99.90
31979;DHT22;18502;43.574;1.276;2024-01-30T09:11:12;13.00;99.90
31979;DHT22;18502;43.574;1.276;2024-01-30T09:13:38;13.10;99.90
31979;DHT22;18502;43.574;1.276;2024-01-30T09:16:04;13.30;99.90
31979;DHT22;18502;43.574;1.276;2024-01-30T09:18:30;13.30;99.90
31979;DHT22;18502;43.574;1.276;2024-01-30T09:20:56;13.20;99.90
31979;DHT22;18502;43.574;1.276;2024-01-30T09:23:22;13.20;99.90
31979;DHT22;18502;43.574;1.276;2024-01-30T09:25:47;13.50;99.90
31979;DHT22;18502;43.574;1.276;2024-01-30T09:28:13;14.10;99.90
31979;DHT22;18502;43.574;1.276;2024-01-30T09:30:39;14.80;99.90
31979;DHT22;18502;43.574;1.276;2024-01-30T09:33:05;14.70;99.90
31979;DHT22;18502;43.574;1.276;2024-01-30T09:35:31;15.00;99.90
31979;DHT22;18502;43.574;1.276;2024-01-30T09:37:57;15.10;99.90
31979;DHT22;18502;43.574;1.276;2024-01-30T09:40:24;16.30;99.90
31979;DHT22;18502;43.574;1.276;2024-01-30T09:42:52;15.90;99.90
31979;DHT22;18502;43.574;1.276;2024-01-30T09:45:19;15.30;99.90
31979;DHT22;18502;43.574;1.276;2024-01-30T09:47:46;15.10;99.90
31979;DHT22;18502;43.574;1.276;2024-01-30T09:50:15;15.40;99.90
31979;DHT22;18502;43.574;1.276;2024-01-30T09:52:42;14.70;99.90
31979;DHT22;18502;43.574;1.276;2024-01-30T09:55:09;15.00;99.90
31979;DHT22;18502;43.574;1.276;2024-01-30T09:57:35;15.90;99.90
31979;DHT22;18502;43.574;1.276;2024-01-30T10:00:02;15.60;99.90
31979;DHT22;18502;43.574;1.276;2024-01-30T10:02:31;15.80;99.90
31979;DHT22;18502;43.574;1.276;2024-01-30T10:04:57;15.60;99.90
31979;DHT22;18502;43.574;1.276;2024-01-30T10:07:22;16.50;99.90
31979;DHT22;18502;43.574;1.276;2024-01-30T10:09:48;17.40;99.90
31979;DHT22;18502;43.574;1.276;2024-01-30T10:12:15;18.40;99.90
31979;DHT22;18502;43.574;1.276;2024-01-30T10:14:42;17.30;99.90
31979;DHT22;18502;43.574;1.276;2024-01-30T10:17:09;18.90;99.90
31979;DHT22;18502;43.574;1.276;2024-01-30T10:19:36;19.80;99.90
31979;DHT22;18502;43.574;1.276;2024-01-30T10:22:05;20.20;99.90
31979;DHT22;18502;43.574;1.276;2024-01-30T10:24:31;19.60;99.90
31979;DHT22;18502;43.574;1.276;2024-01-30T10:26:57;19.20;99.90
31979;DHT22;18502;43.574;1.276;2024-01-30T10:29:22;18.90;99.90
31979;DHT22;18502;43.574;1.276;2024-01-30T10:32:01;18.90;99.90
31979;DHT22;18502;43.574;1.276;2024-01-30T10:34:27;19.30;99.90
31979;DHT22;18502;43.574;1.276;2024-01-30T10:39:32;20.30;99.90
31979;DHT22;18502;43.574;1.276;2024-01-30T10:42:05;20.50;99.90
31979;DHT22;18502;43.574;1.276;2024-01-30T10:44:37;21.70;99.90
31979;DHT22;18502;43.574;1.276;2024-01-30T10:47:07;21.40;99.90
31979;DHT22;18502;43.574;1.276;2024-01-30T10:49:37;20.30;99.90
31979;DHT22;18502;43.574;1.276;2024-01-30T10:52:04;20.40;99.90
31979;DHT22;18502;43.574;1.276;2024-01-30T10:54:31;19.90;99.90
31979;DHT22;18502;43.574;1.276;2024-01-30T10:57:00;20.90;99.90
31979;DHT22;18502;43.574;1.276;2024-01-30T10:59:28;20.70;99.90
31979;DHT22;18502;43.574;1.276;2024-01-30T11:01:53;20.70;99.90
31979;DHT22;18502;43.574;1.276;2024-01-30T11:04:19;20.30;99.90
31979;DHT22;18502;43.574;1.276;2024-01-30T11:06:49;19.80;99.90
31979;DHT22;18502;43.574;1.276;2024-01-30T11:09:17;20.70;99.90
31979;DHT22;18502;43.574;1.276;2024-01-30T11:11:50;21.30;99.90
31979;DHT22;18502;43.574;1.276;2024-01-30T11:14:16;22.50;99.90
31979;DHT22;18502;43.574;1.276;2024-01-30T11:16:42;22.50;99.90
31979;DHT22;18502;43.574;1.276;2024-01-30T11:19:11;22.80;99.90
31979;DHT22;18502;43.574;1.276;2024-01-30T11:21:41;22.10;99.90
31979;DHT22;18502;43.574;1.276;2024-01-30T11:24:08;21.90;99.90
31979;DHT22;18502;43.574;1.276;2024-01-30T11:26:33;22.00;99.90
31979;DHT22;18502;43.574;1.276;2024-01-30T11:29:03;20.50;99.90
31979;DHT22;18502;43.574;1.276;2024-01-30T11:31:30;21.20;99.90
31979;DHT22;18502;43.574;1.276;2024-01-30T11:33:56;23.20;99.90
31979;DHT22;18502;43.574;1.276;2024-01-30T11:36:26;23.70;99.90
31979;DHT22;18502;43.574;1.276;2024-01-30T11:38:54;22.40;99.90
31979;DHT22;18502;43.574;1.276;2024-01-30T11:41:20;20.20;99.90
31979;DHT22;18502;43.574;1.276;2024-01-30T11:43:56;20.70;99.90
31979;DHT22;18502;43.574;1.276;2024-01-30T11:46:25;21.70;99.90
31979;DHT22;18502;43.574;1.276;2024-01-30T11:48:50;20.90;99.90
31979;DHT22;18502;43.574;1.276;2024-01-30T11:51:17;20.50;99.90
31979;DHT22;18502;43.574;1.276;2024-01-30T11:53:49;21.20;99.90
31979;DHT22;18502;43.574;1.276;2024-01-30T11:56:15;23.10;99.90
31979;DHT22;18502;43.574;1.276;2024-01-30T11:58:44;23.20;99.90
31979;DHT22;18502;43.574;1.276;2024-01-30T12:01:11;21.20;99.90
31979;DHT22;18502;43.574;1.276;2024-01-30T12:03:36;20.80;99.90
31979;DHT22;18502;43.574;1.276;2024-01-30T12:06:03;22.60;99.90
31979;DHT22;18502;43.574;1.276;2024-01-30T12:08:28;23.60;99.90
31979;DHT22;18502;43.574;1.276;2024-01-30T12:10:57;23.40;99.90
31979;DHT22;18502;43.574;1.276;2024-01-30T12:13:31;24.20;99.90
31979;DHT22;18502;43.574;1.276;2024-01-30T12:15:57;24.30;99.90
31979;DHT22;18502;43.574;1.276;2024-01-30T12:18:22;22.40;99.90
31979;DHT22;18502;43.574;1.276;2024-01-30T12:21:01;21.30;99.90
31979;DHT22;18502;43.574;1.276;2024-01-30T12:23:29;23.00;99.90
31979;DHT22;18502;43.574;1.276;2024-01-30T12:25:55;24.20;99.90
31979;DHT22;18502;43.574;1.276;2024-01-30T12:28:21;24.00;99.90
31979;DHT22;18502;43.574;1.276;2024-01-30T12:30:47;25.40;99.90
31979;DHT22;18502;43.574;1.276;2024-01-30T12:33:18;26.00;99.90
31979;DHT22;18502;43.574;1.276;2024-01-30T12:35:47;23.90;99.90
31979;DHT22;18502;43.574;1.276;2024-01-30T12:38:14;25.30;99.90
31979;DHT22;18502;43.574;1.276;2024-01-30T12:40:40;24.30;99.90
31979;DHT22;18502;43.574;1.276;2024-01-30T12:43:06;25.00;99.90
31979;DHT22;18502;43.574;1.276;2024-01-30T12:45:31;26.30;99.90
31979;DHT22;18502;43.574;1.276;2024-01-30T12:47:57;24.70;99.90
31979;DHT22;18502;43.574;1.276;2024-01-30T12:50:23;23.60;99.90
31979;DHT22;18502;43.574;1.276;2024-01-30T12:52:49;24.30;99.90
31979;DHT22;18502;43.574;1.276;2024-01-30T12:55:15;25.40;99.90
31979;DHT22;18502;43.574;1.276;2024-01-30T12:57:41;26.10;99.90
31979;DHT22;18502;43.574;1.276;2024-01-30T13:00:07;26.60;99.90
31979;DHT22;18502;43.574;1.276;2024-01-30T13:02:36;25.60;99.90
31979;DHT22;18502;43.574;1.276;2024-01-30T13:05:05;24.10;99.90
31979;DHT22;18502;43.574;1.276;2024-01-30T13:07:31;25.70;99.90
31979;DHT22;18502;43.574;1.276;2024-01-30T13:09:57;28.10;99.90
31979;DHT22;18502;43.574;1.276;2024-01-30T13:12:28;29.00;99.90
31979;DHT22;18502;43.574;1.276;2024-01-30T13:14:54;26.40;99.90
31979;DHT22;18502;43.574;1.276;2024-01-30T13:17:20;27.60;99.90
31979;DHT22;18502;43.574;1.276;2024-01-30T13:19:46;26.80;99.90
31979;DHT22;18502;43.574;1.276;2024-01-30T13:22:12;27.30;99.90
31979;DHT22;18502;43.574;1.276;2024-01-30T13:24:37;27.20;99.90
31979;DHT22;18502;43.574;1.276;2024-01-30T13:27:03;23.80;99.90
31979;DHT22;18502;43.574;1.276;2024-01-30T13:29:31;22.70;99.90
31979;DHT22;18502;43.574;1.276;2024-01-30T13:31:57;25.00;99.90
31979;DHT22;18502;43.574;1.276;2024-01-30T13:34:22;23.30;99.90
31979;DHT22;18502;43.574;1.276;2024-01-30T13:36:48;23.80;99.90
31979;DHT22;18502;43.574;1.276;2024-01-30T13:39:14;25.40;99.90
31979;DHT22;18502;43.574;1.276;2024-01-30T13:41:42;27.10;99.90
31979;DHT22;18502;43.574;1.276;2024-01-30T13:44:08;25.90;99.90
31979;DHT22;18502;43.574;1.276;2024-01-30T13:46:35;27.50;99.90
31979;DHT22;18502;43.574;1.276;2024-01-30T13:49:01;27.90;99.90
31979;DHT22;18502;43.574;1.276;2024-01-30T13:51:27;27.00;99.90
31979;DHT22;18502;43.574;1.276;2024-01-30T13:53:53;26.10;99.90
31979;DHT22;18502;43.574;1.276;2024-01-30T13:56:20;27.30;99.90
31979;DHT22;18502;43.574;1.276;2024-01-30T13:58:49;28.30;99.90
31979;DHT22;18502;43.574;1.276;2024-01-30T14:01:16;30.40;99.90
31979;DHT22;18502;43.574;1.276;2024-01-30T14:03:41;30.70;99.90
31979;DHT22;18502;43.574;1.276;2024-01-30T14:06:07;30.50;99.90
31979;DHT22;18502;43.574;1.276;2024-01-30T14:08:33;30.00;99.90
31979;DHT22;18502;43.574;1.276;2024-01-30T14:10:58;28.20;99.90
31979;DHT22;18502;43.574;1.276;2024-01-30T14:13:24;27.10;99.90
31979;DHT22;18502;43.574;1.276;2024-01-30T14:15:51;26.30;99.90
31979;DHT22;18502;43.574;1.276;2024-01-30T14:18:18;24.60;99.90
31979;DHT22;18502;43.574;1.276;2024-01-30T14:20:43;26.90;99.90
31979;DHT22;18502;43.574;1.276;2024-01-30T14:23:09;27.60;99.90
31979;DHT22;18502;43.574;1.276;2024-01-30T14:25:34;25.80;99.90
31979;DHT22;18502;43.574;1.276;2024-01-30T14:28:00;25.10;99.90
31979;DHT22;18502;43.574;1.276;2024-01-30T14:30:26;26.90;99.90
31979;DHT22;18502;43.574;1.276;2024-01-30T14:32:51;25.60;99.90
31979;DHT22;18502;43.574;1.276;2024-01-30T14:35:17;25.70;99.90
31979;DHT22;18502;43.574;1.276;2024-01-30T14:37:44;25.40;99.90
31979;DHT22;18502;43.574;1.276;2024-01-30T14:40:10;25.80;99.90
31979;DHT22;18502;43.574;1.276;2024-01-30T14:42:36;27.20;99.90
31979;DHT22;18502;43.574;1.276;2024-01-30T14:45:03;25.20;99.90
31979;DHT22;18502;43.574;1.276;2024-01-30T14:47:29;24.10;99.90
31979;DHT22;18502;43.574;1.276;2024-01-30T14:49:54;24.50;99.90
31979;DHT22;18502;43.574;1.276;2024-01-30T14:52:20;25.40;99.90
31979;DHT22;18502;43.574;1.276;2024-01-30T14:54:46;26.30;99.90
31979;DHT22;18502;43.574;1.276;2024-01-30T14:57:11;26.50;99.90
31979;DHT22;18502;43.574;1.276;2024-01-30T14:59:37;26.40;99.90
31979;DHT22;18502;43.574;1.276;2024-01-30T15:02:03;25.00;99.90
31979;DHT22;18502;43.574;1.276;2024-01-30T15:04:28;25.20;99.90
31979;DHT22;18502;43.574;1.276;2024-01-30T15:06:54;24.90;99.90
31979;DHT22;18502;43.574;1.276;2024-01-30T15:09:20;25.60;99.90
31979;DHT22;18502;43.574;1.276;2024-01-30T15:11:47;26.50;99.90
31979;DHT22;18502;43.574;1.276;2024-01-30T15:14:14;24.80;99.90
31979;DHT22;18502;43.574;1.276;2024-01-30T15:16:40;25.00;99.90
31979;DHT22;18502;43.574;1.276;2024-01-30T15:19:06;24.40;99.90
31979;DHT22;18502;43.574;1.276;2024-01-30T15:21:32;25.90;99.90
31979;DHT22;18502;43.574;1.276;2024-01-30T15:23:58;26.10;99.90
31979;DHT22;18502;43.574;1.276;2024-01-30T15:26:23;23.60;99.90